createdAt,value
2022-09-23T00:01:05.038Z,96.28
2022-09-23T00:03:32.946Z,96.38
2022-09-23T00:06:01.860Z,96.17
2022-09-23T00:08:29.469Z,96.03
2022-09-23T00:10:56.410Z,96.12
2022-09-23T00:13:24.715Z,96.43
2022-09-23T00:15:52.022Z,96.36
2022-09-23T00:18:20.559Z,96.44
2022-09-23T00:20:47.283Z,96.36
2022-09-23T00:23:13.805Z,96.53
2022-09-23T00:25:40.198Z,96.68
2022-09-23T00:28:06.537Z,96.47
2022-09-23T00:30:32.998Z,96.72
2022-09-23T00:33:00.234Z,96.65
2022-09-23T00:35:26.790Z,97.07
2022-09-23T00:37:53.194Z,97.02
2022-09-23T00:40:19.607Z,96.75
2022-09-23T00:42:51.180Z,96.52
2022-09-23T00:45:17.784Z,96.72
2022-09-23T00:48:02.298Z,96.92
2022-09-23T00:50:36.107Z,96.53
2022-09-23T00:53:09.727Z,96.80
2022-09-23T00:55:49.187Z,96.69
2022-09-23T00:58:18.993Z,96.76
2022-09-23T01:00:46.788Z,96.73
2022-09-23T01:03:14.464Z,96.62
2022-09-23T01:05:42.383Z,96.87
2022-09-23T01:08:11.906Z,96.73
2022-09-23T01:10:50.451Z,96.85
2022-09-23T01:13:36.575Z,97.04
2022-09-23T01:16:16.464Z,97.14
2022-09-23T01:19:09.348Z,97.11
2022-09-23T01:21:49.788Z,97.14
2022-09-23T01:24:25.003Z,97.34
2022-09-23T01:27:28.920Z,97.04
2022-09-23T01:30:32.880Z,96.98
2022-09-23T01:33:08.768Z,96.98
2022-09-23T01:36:10.059Z,96.98
2022-09-23T01:38:59.188Z,97.04
2022-09-23T01:41:37.484Z,97.02
2022-09-23T01:44:11.269Z,97.03
2022-09-23T01:46:46.378Z,97.26
2022-09-23T01:49:22.037Z,97.16
2022-09-23T01:51:54.859Z,97.19
2022-09-23T01:54:46.243Z,97.38
2022-09-23T01:57:15.708Z,97.46
2022-09-23T01:59:48.567Z,97.36
2022-09-23T02:02:28.336Z,97.33
2022-09-23T02:05:04.088Z,97.36
2022-09-23T02:07:35.395Z,97.25
2022-09-23T02:10:21.593Z,97.41
2022-09-23T02:12:50.213Z,97.36
2022-09-23T02:15:21.133Z,97.30
2022-09-23T02:17:54.287Z,97.36
2022-09-23T02:20:29.556Z,97.23
2022-09-23T02:23:16.629Z,97.40
2022-09-23T02:25:51.115Z,97.17
2022-09-23T02:28:24.072Z,97.28
2022-09-23T02:31:07.311Z,97.38
2022-09-23T02:33:39.257Z,97.34
2022-09-23T02:36:12.495Z,97.43
2022-09-23T02:38:46.588Z,97.33
2022-09-23T02:41:38.974Z,97.46
2022-09-23T02:44:16.294Z,97.40
2022-09-23T02:46:43.600Z,97.40
2022-09-23T02:49:17.478Z,97.37
2022-09-23T02:51:44.709Z,97.32
2022-09-23T02:54:14.909Z,97.50
2022-09-23T02:56:41.567Z,97.48
2022-09-23T02:59:09.478Z,97.53
2022-09-23T03:01:57.925Z,97.58
2022-09-23T03:04:54.749Z,97.60
2022-09-23T03:07:33.119Z,97.70
2022-09-23T03:10:14.614Z,97.67
2022-09-23T03:12:52.845Z,97.65
2022-09-23T03:15:51.605Z,97.58
2022-09-23T03:18:31.684Z,97.82
2022-09-23T03:21:11.446Z,97.63
2022-09-23T03:23:40.558Z,97.63
2022-09-23T03:26:35.346Z,97.72
2022-09-23T03:29:09.355Z,97.76
2022-09-23T03:31:38.715Z,97.77
2022-09-23T03:34:12.628Z,97.88
2022-09-23T03:36:53.292Z,97.51
2022-09-23T03:39:44.366Z,97.73
2022-09-23T03:42:16.941Z,97.74
2022-09-23T03:44:45.544Z,97.83
2022-09-23T03:47:14.522Z,97.75
2022-09-23T03:49:44.387Z,97.85
2022-09-23T03:52:11.157Z,97.68
2022-09-23T03:54:37.626Z,97.99
2022-09-23T03:57:04.281Z,97.68
2022-09-23T03:59:30.913Z,97.69
2022-09-23T04:01:59.500Z,97.66
2022-09-23T04:04:27.518Z,97.80
2022-09-23T04:06:55.171Z,97.69
2022-09-23T04:09:22.802Z,97.83
2022-09-23T04:11:50.526Z,97.85
2022-09-23T04:14:18.648Z,97.90
2022-09-23T04:16:46.174Z,97.81
2022-09-23T04:19:13.413Z,97.76
2022-09-23T04:21:41.325Z,97.75
2022-09-23T04:24:08.563Z,97.67
2022-09-23T04:26:35.990Z,97.69
2022-09-23T04:29:03.402Z,97.72
2022-09-23T04:31:29.868Z,97.69
2022-09-23T04:33:56.333Z,97.96
2022-09-23T04:36:23.034Z,97.81
2022-09-23T04:38:50.186Z,97.71
2022-09-23T04:41:17.765Z,97.73
2022-09-23T04:43:45.462Z,97.87
2022-09-23T04:46:13.822Z,97.68
2022-09-23T04:48:41.600Z,97.95
2022-09-23T04:51:20.252Z,97.75
2022-09-23T04:53:49.680Z,97.68
2022-09-23T04:56:24.454Z,97.89
2022-09-23T04:58:52.174Z,97.84
2022-09-23T05:01:27.462Z,97.93
2022-09-23T05:04:02.283Z,98.01
2022-09-23T05:06:31.422Z,97.95
2022-09-23T05:08:58.804Z,97.82
2022-09-23T05:11:26.073Z,97.74
2022-09-23T05:13:54.521Z,97.80
2022-09-23T05:16:23.181Z,97.75
2022-09-23T05:18:50.780Z,97.72
2022-09-23T05:21:20.184Z,97.97
2022-09-23T05:23:54.984Z,98.01
2022-09-23T05:26:23.496Z,97.88
2022-09-23T05:28:49.917Z,97.95
2022-09-23T05:31:20.455Z,97.74
2022-09-23T05:33:52.859Z,97.91
2022-09-23T05:36:21.130Z,97.99
2022-09-23T05:38:49.744Z,98.04
2022-09-23T05:41:18.258Z,98.22
2022-09-23T05:43:45.199Z,98.29
2022-09-23T05:46:15.396Z,98.26
2022-09-23T05:48:43.006Z,98.40
2022-09-23T05:51:13.545Z,98.41
2022-09-23T05:53:41.621Z,98.65
2022-09-23T05:56:08.232Z,98.83
2022-09-23T05:58:34.731Z,98.86
2022-09-23T06:01:01.150Z,99.08
2022-09-23T06:03:27.645Z,99.17
2022-09-23T06:05:55.265Z,99.45
2022-09-23T06:08:23.664Z,99.36
2022-09-23T06:10:54.403Z,99.47
2022-09-23T06:13:26.002Z,99.53
2022-09-23T06:15:58.172Z,99.60
2022-09-23T06:18:24.665Z,99.54
2022-09-23T06:20:51.477Z,99.72
2022-09-23T06:23:17.842Z,98.88
2022-09-23T06:25:44.197Z,98.35
2022-09-23T06:28:12.138Z,97.90
2022-09-23T06:30:42.490Z,97.96
2022-09-23T06:33:10.011Z,97.92
2022-09-23T06:35:36.416Z,97.74
2022-09-23T06:38:04.497Z,97.75
2022-09-23T06:40:31.288Z,97.39
2022-09-23T06:42:59.290Z,95.83
2022-09-23T06:45:25.942Z,95.97
2022-09-23T06:47:56.475Z,96.05
2022-09-23T06:50:24.379Z,95.44
2022-09-23T06:52:52.222Z,94.14
2022-09-23T06:55:18.653Z,91.79
2022-09-23T06:57:45.044Z,88.83
2022-09-23T07:00:13.177Z,82.96
2022-09-23T07:02:42.111Z,80.47
2022-09-23T07:05:09.439Z,79.14
2022-09-23T07:07:38.188Z,80.29
2022-09-23T07:10:05.873Z,81.12
2022-09-23T07:12:33.398Z,78.73
2022-09-23T07:14:59.767Z,80.96
2022-09-23T07:17:26.920Z,80.13
2022-09-23T07:19:54.931Z,80.65
2022-09-23T07:22:26.386Z,79.20
2022-09-23T07:24:56.681Z,78.24
2022-09-23T07:27:27.955Z,75.55
2022-09-23T07:29:54.993Z,70.10
2022-09-23T07:32:22.935Z,63.27
2022-09-23T07:34:49.670Z,61.19
2022-09-23T07:37:17.363Z,60.36
2022-09-23T07:39:45.025Z,58.78
2022-09-23T07:42:13.189Z,56.41
2022-09-23T07:44:45.633Z,54.90
2022-09-23T07:47:12.006Z,55.72
2022-09-23T07:49:38.442Z,54.13
2022-09-23T07:52:05.096Z,51.41
2022-09-23T07:54:32.137Z,51.01
2022-09-23T07:56:59.757Z,49.70
2022-09-23T07:59:27.208Z,53.88
2022-09-23T08:01:54.845Z,55.01
2022-09-23T08:04:22.859Z,53.81
2022-09-23T08:07:00.778Z,50.68
2022-09-23T08:09:31.853Z,49.00
2022-09-23T08:11:58.446Z,47.41
2022-09-23T08:14:24.909Z,45.90
2022-09-23T08:16:52.241Z,45.82
2022-09-23T08:19:18.837Z,46.06
2022-09-23T08:21:47.379Z,44.76
2022-09-23T08:24:16.936Z,45.22
2022-09-23T08:26:44.741Z,43.77
2022-09-23T08:29:15.861Z,43.72
2022-09-23T08:31:42.783Z,46.71
2022-09-23T08:34:10.735Z,43.24
2022-09-23T08:36:37.819Z,39.95
2022-09-23T08:39:05.201Z,41.32
2022-09-23T08:41:37.341Z,38.05
2022-09-23T08:44:11.907Z,41.56
2022-09-23T08:46:46.472Z,37.57
2022-09-23T08:49:20.426Z,37.92
2022-09-23T08:51:48.466Z,41.50
2022-09-23T08:54:17.701Z,38.90
2022-09-23T08:56:49.082Z,38.26
2022-09-23T08:59:40.402Z,36.46
2022-09-23T09:02:17.819Z,35.74
2022-09-23T09:04:47.636Z,35.76
2022-09-23T09:07:36.376Z,38.13
2022-09-23T09:10:16.592Z,38.65
2022-09-23T09:12:55.132Z,36.93
2022-09-23T09:15:24.958Z,36.93
2022-09-23T09:18:11.393Z,34.52
2022-09-23T09:21:08.442Z,34.41
2022-09-23T09:23:43.041Z,35.50
2022-09-23T09:26:19.547Z,36.30
2022-09-23T09:29:31.250Z,34.98
2022-09-23T09:31:57.639Z,33.25
2022-09-23T09:34:33.538Z,34.33
2022-09-23T09:37:07.142Z,31.80
2022-09-23T09:39:35.610Z,33.08
2022-09-23T09:42:03.635Z,31.36
2022-09-23T09:44:41.673Z,34.18
2022-09-23T09:47:40.532Z,31.68
2022-09-23T09:50:32.858Z,31.17
2022-09-23T09:53:25.517Z,31.74
2022-09-23T09:56:09.884Z,30.53
2022-09-23T09:58:46.900Z,31.49
2022-09-23T10:01:22.083Z,36.43
2022-09-23T10:03:53.044Z,34.71
2022-09-23T10:06:35.653Z,33.92
2022-09-23T10:09:02.103Z,35.12
2022-09-23T10:11:29.480Z,34.14
2022-09-23T10:14:12.663Z,32.23
2022-09-23T10:16:41.429Z,34.13
2022-09-23T10:19:29.207Z,33.81
2022-09-23T10:22:00.228Z,29.03
2022-09-23T10:24:30.483Z,31.19
2022-09-23T10:27:01.674Z,30.53
2022-09-23T10:29:36.722Z,31.00
2022-09-23T10:32:30.676Z,32.44
2022-09-23T10:35:09.281Z,36.72
2022-09-23T10:37:40.558Z,34.88
2022-09-23T10:40:35.412Z,34.05
2022-09-23T10:43:37.880Z,34.76
2022-09-23T10:46:27.298Z,33.16
2022-09-23T10:49:18.592Z,32.34
2022-09-23T10:51:51.685Z,31.11
2022-09-23T10:54:51.107Z,32.83
2022-09-23T10:57:45.032Z,35.29
2022-09-23T11:00:17.713Z,34.37
2022-09-23T11:03:25.362Z,34.27
2022-09-23T11:06:16.750Z,36.26
2022-09-23T11:08:51.363Z,34.21
2022-09-23T11:11:26.679Z,37.14
2022-09-23T11:14:17.757Z,33.21
2022-09-23T11:17:14.561Z,33.00
2022-09-23T11:20:09.703Z,32.63
2022-09-23T11:23:05.635Z,32.66
2022-09-23T11:25:34.768Z,32.09
2022-09-23T11:28:23.470Z,31.91
2022-09-23T11:31:10.042Z,31.05
2022-09-23T11:34:01.645Z,34.24
2022-09-23T11:36:36.361Z,34.45
2022-09-23T11:39:17.932Z,34.57
2022-09-23T11:41:44.900Z,33.09
2022-09-23T11:44:23.464Z,31.45
2022-09-23T11:46:59.423Z,33.43
2022-09-23T11:49:45.996Z,33.39
2022-09-23T11:52:19.573Z,30.99
2022-09-23T11:55:07.710Z,32.63
2022-09-23T11:57:48.501Z,35.42
2022-09-23T12:00:19.799Z,35.92
2022-09-23T12:03:00.365Z,30.96
2022-09-23T12:05:35.330Z,32.19
2022-09-23T12:08:10.334Z,31.75
2022-09-23T12:10:54.737Z,30.55
2022-09-23T12:13:44.156Z,31.38
2022-09-23T12:16:16.817Z,30.15
2022-09-23T12:18:55.351Z,32.94
2022-09-23T12:21:50.767Z,32.43
2022-09-23T12:24:20.586Z,31.90
2022-09-23T12:26:53.191Z,32.03
2022-09-23T12:29:20.422Z,33.19
2022-09-23T12:31:48.137Z,34.52
2022-09-23T12:34:29.937Z,33.74
2022-09-23T12:37:06.087Z,31.60
2022-09-23T12:39:38.531Z,33.32
2022-09-23T12:42:10.859Z,31.05
2022-09-23T12:44:41.925Z,30.75
2022-09-23T12:47:14.210Z,33.84
2022-09-23T12:49:42.706Z,31.82
2022-09-23T12:52:11.834Z,31.15
2022-09-23T12:54:42.750Z,29.21
2022-09-23T12:57:12.976Z,32.65
2022-09-23T12:59:52.359Z,32.93
2022-09-23T13:02:40.889Z,33.83
2022-09-23T13:05:43.695Z,31.18
2022-09-23T13:08:19.445Z,31.38
2022-09-23T13:10:54.846Z,34.42
2022-09-23T13:13:35.643Z,31.72
2022-09-23T13:16:29.306Z,33.00
2022-09-23T13:19:00.765Z,31.11
2022-09-23T13:21:42.312Z,30.64
2022-09-23T13:24:31.041Z,30.91
2022-09-23T13:27:06.708Z,32.36
2022-09-23T13:29:50.085Z,29.86
2022-09-23T13:32:20.231Z,30.78
2022-09-23T13:34:57.925Z,30.98
2022-09-23T13:37:31.320Z,29.72
2022-09-23T13:40:19.804Z,30.26
2022-09-23T13:43:11.818Z,29.77
2022-09-23T13:45:43.007Z,32.83
2022-09-23T13:48:15.140Z,32.31
2022-09-23T13:50:49.293Z,32.79
2022-09-23T13:53:34.047Z,33.42
2022-09-23T13:56:05.787Z,35.09
2022-09-23T13:58:34.369Z,35.35
2022-09-23T14:01:01.245Z,33.79
2022-09-23T14:03:36.885Z,33.94
2022-09-23T14:06:14.679Z,31.15
2022-09-23T14:08:45.055Z,33.21
2022-09-23T14:11:31.947Z,37.71
2022-09-23T14:14:00.835Z,31.41
2022-09-23T14:16:28.145Z,34.52
2022-09-23T14:18:59.831Z,35.44
2022-09-23T14:21:37.179Z,36.78
2022-09-23T14:24:20.018Z,35.56
2022-09-23T14:27:08.645Z,33.39
2022-09-23T14:29:40.401Z,34.41
2022-09-23T14:32:17.309Z,34.66
2022-09-23T14:35:04.416Z,34.65
2022-09-23T14:37:55.539Z,39.43
2022-09-23T14:40:26.161Z,35.25
2022-09-23T14:42:57.711Z,36.75
2022-09-23T14:45:26.634Z,38.53
2022-09-23T14:48:22.447Z,39.77
2022-09-23T14:51:16.094Z,35.61
2022-09-23T14:53:46.285Z,37.53
2022-09-23T14:56:18.755Z,38.93
2022-09-23T14:58:52.406Z,39.26
2022-09-23T15:01:31.324Z,48.30
2022-09-23T15:03:59.659Z,48.51
2022-09-23T15:06:27.219Z,49.05
2022-09-23T15:08:55.576Z,49.15
2022-09-23T15:11:22.529Z,51.31
2022-09-23T15:13:52.697Z,52.28
2022-09-23T15:16:30.102Z,52.14
2022-09-23T15:18:59.751Z,56.18
2022-09-23T15:21:42.704Z,53.91
2022-09-23T15:24:35.867Z,50.09
2022-09-23T15:27:02.758Z,56.07
2022-09-23T15:29:29.987Z,54.86
2022-09-23T15:31:56.728Z,56.14
2022-09-23T15:34:23.146Z,56.27
2022-09-23T15:36:49.628Z,57.04
2022-09-23T15:39:16.043Z,58.28
2022-09-23T15:41:43.341Z,59.55
2022-09-23T15:44:14.740Z,60.93
2022-09-23T15:46:49.906Z,61.39
2022-09-23T15:49:26.097Z,62.28
2022-09-23T15:51:53.295Z,61.98
2022-09-23T15:54:19.785Z,62.49
2022-09-23T15:56:46.200Z,62.20
2022-09-23T15:59:13.564Z,62.46
2022-09-23T16:01:42.097Z,64.35
2022-09-23T16:04:09.862Z,65.35
2022-09-23T16:06:37.521Z,66.33
2022-09-23T16:09:03.989Z,67.95
2022-09-23T16:11:34.441Z,68.13
2022-09-23T16:14:01.262Z,69.21
2022-09-23T16:16:28.283Z,69.49
2022-09-23T16:18:54.841Z,70.24
2022-09-23T16:21:24.294Z,71.01
2022-09-23T16:23:51.407Z,71.42
2022-09-23T16:26:20.694Z,71.95
2022-09-23T16:28:48.937Z,72.20
2022-09-23T16:31:16.295Z,72.11
2022-09-23T16:33:43.869Z,72.91
2022-09-23T16:36:17.648Z,72.80
2022-09-23T16:38:44.383Z,72.81
2022-09-23T16:41:11.615Z,74.00
2022-09-23T16:43:39.724Z,74.69
2022-09-23T16:46:09.009Z,74.54
2022-09-23T16:48:40.718Z,75.21
2022-09-23T16:51:15.753Z,75.75
2022-09-23T16:53:42.688Z,75.19
2022-09-23T16:56:11.376Z,75.76
2022-09-23T16:58:38.911Z,76.67
2022-09-23T17:01:25.959Z,77.47
2022-09-23T17:03:53.196Z,77.23
2022-09-23T17:06:19.579Z,77.43
2022-09-23T17:08:48.271Z,78.93
2022-09-23T17:11:16.412Z,78.43
2022-09-23T17:13:44.210Z,78.99
2022-09-23T17:16:20.914Z,79.09
2022-09-23T17:18:47.341Z,79.80
2022-09-23T17:21:13.792Z,80.15
2022-09-23T17:23:40.233Z,80.40
2022-09-23T17:26:09.733Z,80.89
2022-09-23T17:28:36.344Z,80.90
2022-09-23T17:31:06.420Z,81.44
2022-09-23T17:33:37.352Z,81.49
2022-09-23T17:36:09.151Z,81.66
2022-09-23T17:38:35.998Z,81.83
2022-09-23T17:41:02.521Z,81.70
2022-09-23T17:43:31.360Z,81.83
2022-09-23T17:46:06.338Z,82.74
2022-09-23T17:48:34.840Z,83.43
2022-09-23T17:51:04.546Z,83.57
2022-09-23T17:53:35.302Z,83.82
2022-09-23T17:56:04.541Z,84.02
2022-09-23T17:58:33.476Z,83.57
2022-09-23T18:00:59.930Z,83.94
2022-09-23T18:03:27.657Z,84.54
2022-09-23T18:05:54.591Z,84.68
2022-09-23T18:08:21.285Z,84.45
2022-09-23T18:10:47.681Z,84.48
2022-09-23T18:13:14.505Z,85.00
2022-09-23T18:15:40.963Z,85.44
2022-09-23T18:18:07.555Z,85.46
2022-09-23T18:20:34.085Z,85.62
2022-09-23T18:23:00.458Z,85.95
2022-09-23T18:25:39.048Z,86.07
2022-09-23T18:28:06.155Z,85.87
2022-09-23T18:30:33.347Z,86.61
2022-09-23T18:32:59.854Z,86.76
2022-09-23T18:35:26.510Z,86.57
2022-09-23T18:37:52.907Z,87.07
2022-09-23T18:40:19.350Z,87.08
2022-09-23T18:42:45.794Z,87.32
2022-09-23T18:45:12.198Z,87.25
2022-09-23T18:47:57.352Z,86.94
2022-09-23T18:50:43.619Z,87.61
2022-09-23T18:53:10.443Z,87.69
2022-09-23T18:55:37.153Z,87.53
2022-09-23T18:58:04.075Z,87.90
2022-09-23T19:00:30.510Z,88.23
2022-09-23T19:02:57.591Z,88.68
2022-09-23T19:05:24.000Z,88.92
2022-09-23T19:07:51.268Z,89.03
2022-09-23T19:10:19.149Z,89.12
2022-09-23T19:12:46.704Z,89.24
2022-09-23T19:15:14.095Z,89.38
2022-09-23T19:17:40.451Z,89.51
2022-09-23T19:20:07.543Z,89.39
2022-09-23T19:22:34.497Z,89.53
2022-09-23T19:25:00.872Z,89.32
2022-09-23T19:27:27.261Z,89.49
2022-09-23T19:29:53.768Z,89.84
2022-09-23T19:32:21.072Z,89.56
2022-09-23T19:34:47.836Z,89.82
2022-09-23T19:37:14.431Z,89.69
2022-09-23T19:39:40.861Z,89.45
2022-09-23T19:42:07.640Z,89.42
2022-09-23T19:44:37.664Z,89.49
2022-09-23T19:47:04.077Z,89.70
2022-09-23T19:49:31.017Z,89.62
2022-09-23T19:51:57.446Z,90.11
2022-09-23T19:54:26.779Z,89.96
2022-09-23T19:56:53.283Z,89.81
2022-09-23T19:59:19.803Z,89.57
2022-09-23T20:01:48.003Z,89.30
2022-09-23T20:04:15.658Z,89.66
2022-09-23T20:06:42.323Z,89.93
2022-09-23T20:09:08.766Z,89.98
2022-09-23T20:11:35.745Z,89.59
2022-09-23T20:14:04.612Z,89.40
2022-09-23T20:16:34.094Z,89.61
2022-09-23T20:19:01.877Z,89.84
2022-09-23T20:21:29.375Z,90.03
2022-09-23T20:23:56.838Z,89.45
2022-09-23T20:26:41.872Z,89.86
2022-09-23T20:29:08.948Z,89.67
2022-09-23T20:31:35.483Z,89.93
2022-09-23T20:34:05.490Z,90.10
2022-09-23T20:36:32.906Z,90.03
2022-09-23T20:39:01.602Z,90.12
2022-09-23T20:41:29.711Z,90.33
2022-09-23T20:43:59.324Z,90.27
2022-09-23T20:46:26.686Z,90.23
2022-09-23T20:48:54.236Z,90.59
2022-09-23T20:51:20.913Z,90.53
2022-09-23T20:53:53.979Z,90.70
2022-09-23T20:56:21.494Z,90.74
2022-09-23T20:58:48.653Z,90.43
2022-09-23T21:01:15.788Z,90.76
2022-09-23T21:03:44.760Z,91.00
2022-09-23T21:06:13.834Z,91.29
2022-09-23T21:08:41.227Z,91.56
2022-09-23T21:11:14.847Z,91.42
2022-09-23T21:13:47.053Z,91.51
2022-09-23T21:16:17.943Z,91.51
2022-09-23T21:18:45.035Z,91.54
2022-09-23T21:21:14.001Z,91.83
2022-09-23T21:23:41.700Z,91.48
2022-09-23T21:26:10.935Z,91.19
2022-09-23T21:28:48.752Z,91.31
2022-09-23T21:31:36.287Z,91.21
2022-09-23T21:34:08.597Z,91.18
2022-09-23T21:36:37.279Z,91.28
2022-09-23T21:39:09.082Z,91.32
2022-09-23T21:41:35.792Z,91.23
2022-09-23T21:44:04.521Z,90.97
2022-09-23T21:46:33.517Z,91.31
2022-09-23T21:49:01.929Z,90.88
2022-09-23T21:51:38.524Z,90.77
2022-09-23T21:54:05.680Z,90.65
2022-09-23T21:56:35.072Z,90.63
2022-09-23T21:59:02.100Z,90.73
2022-09-23T22:01:33.123Z,90.94
2022-09-23T22:04:07.795Z,90.96
2022-09-23T22:06:37.403Z,90.99
2022-09-23T22:09:10.995Z,90.46
2022-09-23T22:11:57.559Z,90.62
2022-09-23T22:14:25.737Z,90.96
2022-09-23T22:16:55.886Z,90.76
2022-09-23T22:19:25.942Z,90.83
2022-09-23T22:21:53.583Z,90.85
2022-09-23T22:24:20.205Z,90.93
2022-09-23T22:26:47.026Z,90.67
2022-09-23T22:29:34.102Z,91.00
2022-09-23T22:32:21.017Z,91.00
2022-09-23T22:34:51.472Z,90.78
2022-09-23T22:37:27.750Z,90.94
2022-09-23T22:39:54.793Z,90.82
2022-09-23T22:42:22.231Z,90.69
2022-09-23T22:44:49.284Z,90.77
2022-09-23T22:47:17.539Z,90.91
2022-09-23T22:49:44.012Z,90.76
2022-09-23T22:52:11.209Z,90.84
2022-09-23T22:54:37.928Z,90.94
2022-09-23T22:57:05.771Z,91.10
2022-09-23T22:59:32.163Z,91.20
2022-09-23T23:02:02.851Z,91.05
2022-09-23T23:04:30.032Z,91.16
2022-09-23T23:06:57.956Z,91.12
2022-09-23T23:09:24.365Z,91.63
2022-09-23T23:11:50.770Z,90.96
2022-09-23T23:14:18.082Z,91.03
2022-09-23T23:16:45.980Z,91.18
2022-09-23T23:19:16.473Z,91.43
2022-09-23T23:21:43.837Z,91.12
2022-09-23T23:24:18.613Z,90.94
2022-09-23T23:26:45.312Z,91.11
2022-09-23T23:29:13.672Z,91.23
2022-09-23T23:31:40.789Z,90.97
2022-09-23T23:34:10.587Z,90.89
2022-09-23T23:36:37.369Z,90.60
2022-09-23T23:39:04.008Z,90.65
2022-09-23T23:41:31.216Z,90.71
2022-09-23T23:44:00.196Z,90.66
2022-09-23T23:46:28.671Z,90.74
2022-09-23T23:48:56.997Z,90.88
2022-09-23T23:51:26.228Z,90.75
2022-09-23T23:53:53.901Z,90.37
2022-09-23T23:56:23.332Z,90.44
2022-09-23T23:58:57.947Z,90.47
